createdAt,value
2018-07-03T00:00:22.794Z,3.30
2018-07-03T00:02:57.764Z,2.53
2018-07-03T00:05:32.805Z,3.07
2018-07-03T00:08:07.817Z,3.13
2018-07-03T00:10:42.504Z,2.70
2018-07-03T00:13:17.155Z,2.50
2018-07-03T00:15:51.685Z,2.63
2018-07-03T00:18:26.462Z,3.10
2018-07-03T00:21:01.257Z,2.90
2018-07-03T00:23:36.185Z,2.33
2018-07-03T00:26:10.476Z,3.13
2018-07-03T00:28:45.459Z,2.50
2018-07-03T00:31:19.791Z,2.53
2018-07-03T00:33:55.043Z,3.30
2018-07-03T00:36:30.103Z,2.93
2018-07-03T00:39:07.607Z,2.73
2018-07-03T00:41:42.315Z,3.20
2018-07-03T00:44:16.876Z,2.80
2018-07-03T00:46:51.361Z,2.40
2018-07-03T00:49:26.066Z,3.13
2018-07-03T00:52:00.760Z,3.50
2018-07-03T00:54:35.643Z,2.40
2018-07-03T00:57:10.343Z,2.43
2018-07-03T01:00:02.382Z,2.83
2018-07-03T01:02:36.512Z,2.57
2018-07-03T01:05:11.269Z,2.90
2018-07-03T01:07:45.836Z,2.67
2018-07-03T01:10:20.286Z,3.20
2018-07-03T01:12:55.648Z,2.77
2018-07-03T01:15:30.401Z,2.70
2018-07-03T01:18:06.013Z,2.20
2018-07-03T01:20:40.612Z,2.20
2018-07-03T01:23:15.078Z,2.60
2018-07-03T01:25:49.777Z,3.00
2018-07-03T01:28:24.796Z,3.43
2018-07-03T01:30:59.150Z,2.83
2018-07-03T01:33:33.971Z,2.87
2018-07-03T01:36:08.225Z,3.37
2018-07-03T01:38:42.768Z,2.37
2018-07-03T01:41:17.225Z,2.47
2018-07-03T01:43:52.064Z,2.67
2018-07-03T01:46:26.445Z,2.70
2018-07-03T01:49:01.407Z,2.73
2018-07-03T01:51:35.574Z,2.23
2018-07-03T01:54:10.475Z,3.20
2018-07-03T01:56:45.045Z,2.80
2018-07-03T01:59:19.645Z,2.73
2018-07-03T02:01:54.034Z,2.90
2018-07-03T02:04:28.755Z,2.30
2018-07-03T02:07:03.421Z,2.40
2018-07-03T02:09:38.037Z,2.57
2018-07-03T02:12:12.721Z,2.60
2018-07-03T02:14:47.545Z,2.50
2018-07-03T02:17:22.698Z,2.10
2018-07-03T02:19:57.217Z,2.33
2018-07-03T02:22:32.026Z,2.33
2018-07-03T02:25:06.345Z,2.27
2018-07-03T02:27:40.920Z,1.90
2018-07-03T02:30:15.681Z,3.27
2018-07-03T02:32:50.867Z,3.00
2018-07-03T02:35:25.041Z,2.63
2018-07-03T02:38:00.089Z,2.90
2018-07-03T02:40:34.365Z,2.37
2018-07-03T02:43:09.472Z,1.90
2018-07-03T02:45:43.656Z,2.63
2018-07-03T02:48:18.458Z,2.43
2018-07-03T02:50:52.935Z,2.90
2018-07-03T02:53:27.457Z,2.40
2018-07-03T02:56:01.981Z,2.60
2018-07-03T02:58:36.698Z,2.60
2018-07-03T03:01:11.299Z,2.57
2018-07-03T03:03:45.917Z,2.13
2018-07-03T03:06:20.669Z,2.90
2018-07-03T03:08:55.181Z,2.30
2018-07-03T03:11:29.694Z,2.63
2018-07-03T03:14:04.555Z,2.43
2018-07-03T03:16:38.914Z,2.73
2018-07-03T03:19:13.945Z,2.93
2018-07-03T03:21:48.461Z,3.00
2018-07-03T03:24:23.049Z,2.47
2018-07-03T03:26:57.796Z,2.80
2018-07-03T03:29:32.768Z,2.53
2018-07-03T03:32:07.057Z,2.53
2018-07-03T03:34:41.707Z,3.00
2018-07-03T03:37:16.450Z,2.97
2018-07-03T03:39:51.383Z,2.40
2018-07-03T03:42:25.707Z,2.63
2018-07-03T03:45:00.159Z,2.30
2018-07-03T03:47:34.870Z,2.23
2018-07-03T03:50:10.489Z,2.60
2018-07-03T03:52:44.832Z,2.00
2018-07-03T03:55:19.641Z,2.67
2018-07-03T03:57:54.297Z,2.30
2018-07-03T04:00:28.651Z,2.03
2018-07-03T04:03:03.227Z,2.23
2018-07-03T04:05:38.250Z,2.20
2018-07-03T04:08:12.628Z,2.43
2018-07-03T04:10:47.306Z,2.20
2018-07-03T04:13:21.973Z,2.60
2018-07-03T04:15:56.946Z,2.40
2018-07-03T04:18:34.279Z,2.07
2018-07-03T04:21:08.843Z,2.40
2018-07-03T04:23:44.572Z,2.67
2018-07-03T04:26:19.531Z,2.83
2018-07-03T04:28:54.156Z,2.30
2018-07-03T04:31:28.637Z,2.40
2018-07-03T04:34:03.455Z,2.40
2018-07-03T04:36:38.257Z,2.30
2018-07-03T04:39:12.692Z,2.70
2018-07-03T04:41:47.591Z,2.03
2018-07-03T04:44:21.805Z,1.93
2018-07-03T04:46:57.102Z,2.00
2018-07-03T04:49:31.271Z,2.20
2018-07-03T04:52:05.960Z,2.07
2018-07-03T04:54:40.406Z,2.20
2018-07-03T04:57:14.925Z,1.97
2018-07-03T04:59:49.604Z,2.23
2018-07-03T05:02:24.482Z,2.10
2018-07-03T05:04:58.904Z,2.43
2018-07-03T05:07:33.728Z,2.97
2018-07-03T05:10:08.581Z,2.60
2018-07-03T05:12:43.037Z,2.60
2018-07-03T05:15:17.753Z,2.50
2018-07-03T05:17:52.220Z,2.57
2018-07-03T05:20:27.198Z,2.10
2018-07-03T05:23:02.374Z,2.70
2018-07-03T05:25:37.254Z,2.07
2018-07-03T05:28:12.013Z,2.33
2018-07-03T05:30:46.393Z,2.70
2018-07-03T05:33:21.704Z,2.33
2018-07-03T05:35:56.656Z,2.70
2018-07-03T05:38:31.574Z,2.67
2018-07-03T05:41:06.345Z,2.43
2018-07-03T05:43:41.096Z,2.63
2018-07-03T05:46:15.525Z,2.60
2018-07-03T05:48:50.105Z,2.50
2018-07-03T05:51:24.861Z,3.00
2018-07-03T05:53:59.868Z,2.93
2018-07-03T05:56:34.032Z,3.40
2018-07-03T05:59:08.860Z,3.07
2018-07-03T06:01:43.315Z,3.07
2018-07-03T06:04:18.294Z,3.27
2018-07-03T06:06:52.474Z,2.67
2018-07-03T06:09:27.731Z,4.03
2018-07-03T06:12:02.826Z,2.67
2018-07-03T06:14:37.551Z,2.87
2018-07-03T06:17:12.256Z,2.70
2018-07-03T06:19:47.119Z,3.70
2018-07-03T06:22:21.606Z,2.63
2018-07-03T06:24:56.580Z,2.60
2018-07-03T06:27:30.877Z,2.27
2018-07-03T06:30:05.761Z,2.43
2018-07-03T06:32:40.147Z,2.83
2018-07-03T06:35:15.164Z,2.40
2018-07-03T06:37:49.814Z,2.23
2018-07-03T06:40:24.161Z,2.50
2018-07-03T06:42:58.822Z,3.13
2018-07-03T06:45:33.566Z,2.60
2018-07-03T06:48:08.384Z,2.40
2018-07-03T06:50:43.225Z,2.27
2018-07-03T06:53:17.962Z,1.87
2018-07-03T06:55:52.892Z,1.90
2018-07-03T06:58:27.084Z,2.03
2018-07-03T07:01:01.777Z,2.03
2018-07-03T07:03:36.205Z,2.17
2018-07-03T07:06:10.800Z,2.30
2018-07-03T07:08:45.522Z,2.00
2018-07-03T07:11:20.286Z,1.40
2018-07-03T07:13:54.935Z,2.47
2018-07-03T07:16:29.583Z,2.80
2018-07-03T07:19:04.167Z,1.60
2018-07-03T07:21:39.015Z,2.07
2018-07-03T07:24:13.623Z,1.90
2018-07-03T07:26:48.611Z,1.50
2018-07-03T07:29:23.568Z,3.13
2018-07-03T07:31:58.379Z,1.93
2018-07-03T07:34:32.991Z,1.67
2018-07-03T07:37:07.684Z,1.87
2018-07-03T07:39:42.721Z,1.87
2018-07-03T07:42:17.099Z,1.80
2018-07-03T07:44:51.726Z,1.57
2018-07-03T07:47:26.339Z,1.23
2018-07-03T07:50:00.878Z,1.50
2018-07-03T07:52:35.714Z,1.70
2018-07-03T07:55:10.070Z,1.57
2018-07-03T07:57:44.691Z,1.20
2018-07-03T08:00:19.381Z,1.13
2018-07-03T08:02:54.438Z,1.20
2018-07-03T08:05:28.731Z,1.83
2018-07-03T08:08:03.445Z,1.43
2018-07-03T08:10:38.075Z,1.67
2018-07-03T08:13:12.922Z,1.30
2018-07-03T08:15:47.922Z,1.53
2018-07-03T08:18:22.253Z,1.90
2018-07-03T08:20:56.739Z,1.00
2018-07-03T08:23:31.634Z,1.10
2018-07-03T08:26:06.638Z,1.03
2018-07-03T08:28:41.797Z,1.10
2018-07-03T08:31:16.521Z,1.10
2018-07-03T08:33:51.479Z,1.20
2018-07-03T08:36:25.743Z,1.00
2018-07-03T08:39:00.443Z,1.60
2018-07-03T08:41:34.961Z,1.47
2018-07-03T08:44:09.702Z,1.10
2018-07-03T08:46:44.394Z,1.07
2018-07-03T08:49:19.020Z,1.00
2018-07-03T08:51:53.785Z,1.23
2018-07-03T08:54:28.677Z,1.20
2018-07-03T08:57:03.268Z,1.57
2018-07-03T08:59:37.824Z,1.10
2018-07-03T09:02:12.347Z,1.20
2018-07-03T09:04:47.061Z,1.10
2018-07-03T09:07:21.768Z,1.50
2018-07-03T09:09:56.541Z,1.33
2018-07-03T09:12:31.352Z,1.20
2018-07-03T09:15:06.811Z,1.20
2018-07-03T09:17:41.435Z,0.90
2018-07-03T09:20:16.083Z,1.37
2018-07-03T09:22:51.013Z,1.30
2018-07-03T09:25:25.625Z,1.20
2018-07-03T09:28:00.466Z,1.17
2018-07-03T09:30:34.915Z,1.23
2018-07-03T09:33:09.607Z,1.40
2018-07-03T09:35:44.143Z,1.23
2018-07-03T09:38:18.894Z,1.00
2018-07-03T09:40:53.696Z,1.40
2018-07-03T09:43:28.364Z,1.40
2018-07-03T09:46:03.038Z,1.13
2018-07-03T09:48:37.992Z,1.30
2018-07-03T09:51:12.323Z,1.20
2018-07-03T09:53:46.998Z,1.57
2018-07-03T09:56:21.891Z,1.10
2018-07-03T09:58:56.568Z,1.30
2018-07-03T10:01:31.481Z,1.40
2018-07-03T10:04:05.962Z,1.33
2018-07-03T10:06:41.057Z,1.10
2018-07-03T10:09:15.422Z,1.40
2018-07-03T10:11:50.024Z,1.20
2018-07-03T10:14:24.581Z,2.23
2018-07-03T10:16:59.244Z,1.60
2018-07-03T10:19:33.760Z,1.20
2018-07-03T10:22:08.540Z,1.77
2018-07-03T10:24:43.013Z,1.60
2018-07-03T10:27:17.537Z,1.27
2018-07-03T10:29:52.321Z,1.10
2018-07-03T10:32:27.167Z,1.20
2018-07-03T10:35:01.794Z,1.50
2018-07-03T10:37:36.196Z,1.83
2018-07-03T10:40:10.909Z,1.43
2018-07-03T10:42:45.570Z,1.33
2018-07-03T10:45:20.587Z,1.30
2018-07-03T10:47:55.032Z,1.30
2018-07-03T10:50:29.421Z,1.00
2018-07-03T10:53:04.271Z,1.70
2018-07-03T10:55:38.652Z,1.33
2018-07-03T10:58:13.514Z,1.80
2018-07-03T11:00:48.286Z,1.20
2018-07-03T11:03:23.182Z,1.30
2018-07-03T11:05:58.421Z,1.50
2018-07-03T11:08:32.604Z,1.47
2018-07-03T11:11:07.279Z,1.20
2018-07-03T11:13:42.136Z,1.70
2018-07-03T11:16:16.442Z,1.33
2018-07-03T11:18:51.261Z,1.60
2018-07-03T11:21:25.824Z,1.20
2018-07-03T11:24:00.414Z,2.20
2018-07-03T11:26:36.232Z,1.57
2018-07-03T11:29:10.965Z,1.63
2018-07-03T11:31:45.374Z,1.23
2018-07-03T11:34:20.019Z,1.40
2018-07-03T11:36:54.806Z,1.53
2018-07-03T11:39:29.679Z,1.30
2018-07-03T11:42:04.125Z,1.50
2018-07-03T11:44:38.842Z,1.73
2018-07-03T11:47:13.766Z,1.20
2018-07-03T11:49:49.321Z,2.43
2018-07-03T11:52:24.188Z,1.77
2018-07-03T11:54:59.770Z,1.33
2018-07-03T11:57:35.121Z,1.30
2018-07-03T12:00:10.667Z,1.50
2018-07-03T12:02:45.163Z,1.73
2018-07-03T12:05:19.940Z,1.20
2018-07-03T12:07:54.703Z,1.40
2018-07-03T12:10:29.869Z,1.20
2018-07-03T12:13:04.823Z,1.37
2018-07-03T12:15:39.670Z,1.47
2018-07-03T12:18:19.799Z,1.23
2018-07-03T12:20:55.030Z,1.40
2018-07-03T12:23:30.307Z,1.37
2018-07-03T12:26:05.221Z,1.50
2018-07-03T12:28:39.607Z,1.40
2018-07-03T12:31:14.531Z,1.60
2018-07-03T12:33:49.072Z,1.40
2018-07-03T12:36:23.860Z,1.33
2018-07-03T12:38:58.647Z,1.20
2018-07-03T12:41:33.629Z,1.00
2018-07-03T12:44:08.711Z,1.43
2018-07-03T12:46:43.399Z,1.70
2018-07-03T12:49:18.046Z,1.37
2018-07-03T12:51:52.874Z,1.60
2018-07-03T12:54:27.420Z,1.70
2018-07-03T12:57:02.009Z,1.53
2018-07-03T12:59:36.542Z,1.53
2018-07-03T13:02:11.274Z,1.47
2018-07-03T13:04:46.098Z,1.50
2018-07-03T13:07:20.574Z,2.00
2018-07-03T13:09:55.258Z,1.93
2018-07-03T13:12:29.588Z,1.50
2018-07-03T13:15:04.687Z,1.53
2018-07-03T13:17:39.123Z,1.43
2018-07-03T13:20:13.610Z,1.27
2018-07-03T13:22:48.067Z,1.53
2018-07-03T13:25:22.721Z,1.60
2018-07-03T13:27:57.420Z,1.40
2018-07-03T13:30:32.537Z,1.73
2018-07-03T13:33:06.877Z,1.63
2018-07-03T13:35:41.612Z,1.67
2018-07-03T13:38:16.375Z,1.60
2018-07-03T13:40:51.064Z,1.73
2018-07-03T13:43:25.246Z,1.43
2018-07-03T13:45:59.996Z,1.60
2018-07-03T13:48:34.524Z,2.03
2018-07-03T13:51:09.263Z,1.53
2018-07-03T13:53:43.754Z,1.20
2018-07-03T13:56:18.613Z,1.80
2018-07-03T13:58:53.019Z,1.63
2018-07-03T14:01:27.879Z,1.63
2018-07-03T14:04:02.227Z,1.70
2018-07-03T14:06:37.020Z,2.43
2018-07-03T14:09:11.544Z,1.63
2018-07-03T14:11:47.257Z,1.70
2018-07-03T14:14:22.112Z,1.53
2018-07-03T14:16:56.858Z,1.57
2018-07-03T14:19:31.283Z,1.87
2018-07-03T14:22:06.234Z,2.50
2018-07-03T14:24:40.988Z,1.60
2018-07-03T14:27:15.439Z,2.37
2018-07-03T14:29:50.104Z,2.10
2018-07-03T14:32:24.909Z,1.80
2018-07-03T14:34:59.609Z,1.53
2018-07-03T14:37:34.140Z,1.80
2018-07-03T14:40:08.878Z,2.20
2018-07-03T14:42:43.954Z,2.30
2018-07-03T14:45:19.231Z,2.00
2018-07-03T14:47:53.806Z,1.87
2018-07-03T14:50:28.281Z,1.70
2018-07-03T14:53:03.154Z,1.60
2018-07-03T14:55:37.813Z,2.20
2018-07-03T14:58:12.037Z,2.20
2018-07-03T15:00:46.622Z,1.77
2018-07-03T15:03:21.675Z,2.03
2018-07-03T15:05:55.772Z,1.93
2018-07-03T15:08:31.640Z,1.97
2018-07-03T15:11:06.442Z,2.53
2018-07-03T15:13:40.751Z,2.80
2018-07-03T15:16:15.392Z,2.97
2018-07-03T15:18:55.891Z,2.80
2018-07-03T15:21:30.949Z,3.37
2018-07-03T15:24:07.440Z,3.90
2018-07-03T15:26:42.413Z,3.80
2018-07-03T15:29:16.598Z,3.97
2018-07-03T15:31:51.549Z,4.07
2018-07-03T15:34:26.065Z,4.23
2018-07-03T15:37:01.062Z,4.23
2018-07-03T15:39:35.774Z,3.60
2018-07-03T15:42:10.198Z,4.43
2018-07-03T15:45:00.884Z,5.23
2018-07-03T15:47:35.582Z,4.60
2018-07-03T15:50:11.566Z,4.40
2018-07-03T15:52:45.787Z,4.00
2018-07-03T15:55:20.365Z,4.40
2018-07-03T15:57:55.100Z,5.40
2018-07-03T16:00:30.379Z,4.67
2018-07-03T16:05:32.589Z,3.73
2018-07-03T16:09:26.118Z,4.43
2018-07-03T16:12:01.169Z,4.57
2018-07-03T16:14:36.120Z,4.97
2018-07-03T16:17:10.347Z,4.20
2018-07-03T16:19:50.625Z,4.20
2018-07-03T16:22:25.634Z,5.17
2018-07-03T16:25:00.374Z,4.53
2018-07-03T16:27:35.296Z,4.77
2018-07-03T16:30:09.998Z,4.73
2018-07-03T16:32:44.910Z,4.40
2018-07-03T16:35:19.404Z,4.43
2018-07-03T16:37:54.334Z,4.63
2018-07-03T16:40:28.722Z,3.60
2018-07-03T16:43:03.516Z,4.27
2018-07-03T16:45:38.188Z,4.07
2018-07-03T16:48:13.354Z,3.50
2018-07-03T16:50:47.577Z,3.90
2018-07-03T16:53:22.288Z,3.80
2018-07-03T16:55:57.008Z,3.40
2018-07-03T16:58:31.759Z,3.73
2018-07-03T17:01:06.196Z,4.10
2018-07-03T17:03:40.966Z,3.00
2018-07-03T17:06:15.983Z,3.70
2018-07-03T17:08:51.148Z,3.33
2018-07-03T17:11:26.083Z,3.43
2018-07-03T17:14:00.931Z,3.53
2018-07-03T17:16:35.605Z,3.00
2018-07-03T17:19:16.007Z,3.23
2018-07-03T17:21:50.973Z,4.03
2018-07-03T17:24:26.091Z,4.00
2018-07-03T17:27:00.526Z,4.40
2018-07-03T17:29:35.338Z,3.27
2018-07-03T17:32:09.961Z,3.60
2018-07-03T17:34:44.734Z,3.27
2018-07-03T17:37:19.315Z,2.83
2018-07-03T17:40:05.531Z,3.50
2018-07-03T17:42:57.182Z,3.13
2018-07-03T17:45:48.815Z,3.03
2018-07-03T17:48:23.135Z,3.47
2018-07-03T17:50:58.327Z,3.47
2018-07-03T17:53:32.896Z,3.00
2018-07-03T17:56:07.688Z,3.20
2018-07-03T17:58:42.147Z,3.30
2018-07-03T18:01:17.133Z,3.63
2018-07-03T18:03:51.705Z,3.43
2018-07-03T18:06:26.244Z,3.20
2018-07-03T18:09:00.943Z,3.10
2018-07-03T18:11:35.540Z,3.10
2018-07-03T18:14:10.449Z,3.83
2018-07-03T18:16:45.475Z,3.10
2018-07-03T18:19:54.350Z,3.40
2018-07-03T18:22:28.861Z,4.13
2018-07-03T18:25:03.558Z,3.70
2018-07-03T18:27:38.691Z,3.37
2018-07-03T18:30:13.621Z,4.27
2018-07-03T18:32:47.907Z,3.40
2018-07-03T18:35:22.951Z,3.67
2018-07-03T18:37:58.150Z,4.03
2018-07-03T18:40:32.814Z,3.80
2018-07-03T18:43:07.413Z,3.20
2018-07-03T18:45:41.803Z,3.43
2018-07-03T18:48:16.659Z,3.03
2018-07-03T18:50:51.136Z,3.00
2018-07-03T18:53:25.488Z,3.83
2018-07-03T18:56:00.037Z,3.63
2018-07-03T18:58:34.843Z,3.53
2018-07-03T19:01:09.168Z,2.90
2018-07-03T19:03:43.982Z,4.07
2018-07-03T19:06:18.549Z,4.17
2018-07-03T19:08:53.221Z,3.30
2018-07-03T19:11:27.867Z,3.67
2018-07-03T19:14:02.927Z,4.53
2018-07-03T19:16:37.216Z,5.10
2018-07-03T19:19:11.953Z,4.63
2018-07-03T19:21:46.652Z,5.10
2018-07-03T19:24:21.759Z,4.37
2018-07-03T19:26:56.189Z,4.13
2018-07-03T19:29:30.762Z,4.27
2018-07-03T19:32:05.501Z,5.37
2018-07-03T19:34:40.571Z,3.60
2018-07-03T19:37:15.657Z,3.80
2018-07-03T19:39:50.718Z,3.93
2018-07-03T19:42:24.915Z,4.30
2018-07-03T19:44:59.682Z,3.80
2018-07-03T19:47:34.457Z,3.53
2018-07-03T19:50:09.342Z,3.47
2018-07-03T19:52:43.746Z,3.67
2018-07-03T19:55:18.818Z,4.13
2018-07-03T19:57:53.134Z,4.37
2018-07-03T20:00:28.064Z,4.70
2018-07-03T20:03:03.981Z,4.30
2018-07-03T20:05:39.645Z,3.67
2018-07-03T20:08:14.405Z,4.33
2018-07-03T20:10:49.066Z,4.20
2018-07-03T20:13:23.952Z,4.00
2018-07-03T20:15:58.896Z,3.67
2018-07-03T20:18:33.831Z,5.00
2018-07-03T20:21:09.065Z,4.00
2018-07-03T20:23:44.765Z,4.97
2018-07-03T20:26:19.539Z,6.23
2018-07-03T20:28:53.890Z,6.37
2018-07-03T20:31:29.322Z,6.57
2018-07-03T20:34:04.048Z,5.63
2018-07-03T20:36:38.879Z,5.60
2018-07-03T20:39:13.187Z,6.20
2018-07-03T20:41:47.818Z,5.57
2018-07-03T20:44:22.425Z,5.83
2018-07-03T20:46:57.734Z,5.43
2018-07-03T20:49:32.697Z,4.77
2018-07-03T20:52:07.430Z,5.43
2018-07-03T20:54:41.659Z,5.87
2018-07-03T20:57:16.840Z,5.13
2018-07-03T20:59:51.186Z,5.70
2018-07-03T21:02:25.766Z,4.40
2018-07-03T21:05:00.720Z,4.73
2018-07-03T21:07:35.485Z,5.00
2018-07-03T21:10:10.011Z,5.20
2018-07-03T21:12:44.908Z,5.60
2018-07-03T21:15:19.718Z,4.50
2018-07-03T21:17:54.459Z,4.70
2018-07-03T21:20:29.224Z,4.23
2018-07-03T21:23:03.903Z,3.97
2018-07-03T21:25:38.534Z,4.40
2018-07-03T21:28:13.345Z,4.30
2018-07-03T21:30:48.035Z,4.77
2018-07-03T21:33:22.375Z,5.00
2018-07-03T21:35:57.268Z,4.83
2018-07-03T21:38:31.896Z,4.80
2018-07-03T21:41:06.284Z,5.97
2018-07-03T21:43:40.942Z,4.67
2018-07-03T21:46:15.486Z,5.40
2018-07-03T21:48:50.194Z,4.50
2018-07-03T21:51:24.997Z,5.00
2018-07-03T21:53:59.651Z,5.10
2018-07-03T21:56:34.364Z,4.40
2018-07-03T21:59:09.353Z,5.13
2018-07-03T22:01:44.695Z,4.50
2018-07-03T22:04:19.847Z,5.47
2018-07-03T22:06:54.722Z,5.60
2018-07-03T22:09:29.184Z,4.80
2018-07-03T22:12:04.014Z,4.90
2018-07-03T22:14:40.447Z,5.10
2018-07-03T22:17:15.145Z,4.80
2018-07-03T22:19:49.959Z,5.10
2018-07-03T22:22:24.593Z,4.57
2018-07-03T22:24:59.382Z,4.23
2018-07-03T22:27:33.990Z,4.80
2018-07-03T22:30:08.840Z,5.47
2018-07-03T22:32:43.583Z,5.17
2018-07-03T22:35:18.356Z,4.80
2018-07-03T22:37:53.025Z,5.10
2018-07-03T22:40:27.593Z,4.80
2018-07-03T22:43:02.215Z,5.13
2018-07-03T22:45:37.129Z,5.23
2018-07-03T22:48:11.802Z,5.27
2018-07-03T22:50:46.399Z,4.43
2018-07-03T22:53:21.076Z,5.80
2018-07-03T22:55:55.638Z,5.70
2018-07-03T22:58:30.513Z,4.90
2018-07-03T23:01:05.006Z,4.30
2018-07-03T23:03:39.384Z,4.97
2018-07-03T23:06:14.133Z,4.57
2018-07-03T23:08:48.815Z,5.30
2018-07-03T23:11:23.657Z,4.10
2018-07-03T23:13:58.046Z,4.77
2018-07-03T23:16:32.720Z,5.13
2018-07-03T23:19:07.683Z,4.87
2018-07-03T23:21:42.930Z,4.37
2018-07-03T23:24:18.016Z,5.07
2018-07-03T23:26:52.996Z,3.67
2018-07-03T23:29:27.361Z,4.83
2018-07-03T23:32:02.061Z,4.33
2018-07-03T23:34:36.665Z,4.07
2018-07-03T23:37:11.646Z,4.63
2018-07-03T23:39:46.047Z,4.40
2018-07-03T23:42:20.863Z,4.40
2018-07-03T23:44:55.703Z,4.53
2018-07-03T23:47:47.301Z,4.73
2018-07-03T23:50:39.288Z,4.20
2018-07-03T23:53:31.049Z,5.17
2018-07-03T23:56:22.973Z,4.90
2018-07-03T23:59:14.875Z,4.00
